Time;durP1;ratioP1;P1;durP2;ratioP2;P2;SDS_P1;SDS_P2;PMS_P1;PMS_P2;Temp;Humidity;BMP_temperature;BMP_pressure;BME280_temperature;BME280_humidity;BME280_pressure;Samples;Min_cycle;Max_cycle;Signal;HPM_P1;HPM_P2
2023/09/28 00:01:47;;;;;;;;;;;22.90;1.00;;;;;;4919277;29;19928;-55
2023/09/28 00:04:14;;;;;;;;;;;22.90;1.00;;;;;;4919028;29;19927;-52
2023/09/28 00:06:41;;;;;;;;;;;22.90;1.00;;;;;;4900496;29;20385;-52
2023/09/28 00:09:10;;;;;;;;;;;22.80;1.00;;;;;;4899825;29;19927;-52
2023/09/28 00:11:37;;;;;;;;;;;22.80;1.00;;;;;;4900000;29;19927;-52
2023/09/28 00:14:04;;;;;;;;;;;22.80;1.00;;;;;;4900139;29;19998;-55
2023/09/28 00:16:31;;;;;;;;;;;22.80;1.00;;;;;;4900001;29;19954;-53
2023/09/28 00:18:58;;;;;;;;;;;22.80;1.00;;;;;;4899620;29;20426;-56
2023/09/28 00:21:26;;;;;;;;;;;22.80;1.00;;;;;;4899902;29;20390;-51
2023/09/28 00:23:53;;;;;;;;;;;22.80;1.00;;;;;;4900021;29;20189;-53
2023/09/28 00:26:20;;;;;;;;;;;22.80;1.00;;;;;;4899697;29;19963;-52
2023/09/28 00:28:50;;;;;;;;;;;22.80;1.00;;;;;;4899712;29;20267;-52
2023/09/28 00:31:18;;;;;;;;;;;22.80;1.00;;;;;;4899728;29;20396;-50
2023/09/28 00:33:45;;;;;;;;;;;22.80;1.00;;;;;;4882985;29;20014;-54
2023/09/28 00:36:12;;;;;;;;;;;22.80;1.00;;;;;;4882661;29;19943;-52
2023/09/28 00:38:39;;;;;;;;;;;22.80;1.00;;;;;;4882545;29;19931;-51
2023/09/28 00:41:07;;;;;;;;;;;22.80;1.00;;;;;;4882672;29;20019;-53
2023/09/28 00:43:34;;;;;;;;;;;22.80;1.00;;;;;;4882878;29;19938;-50
2023/09/28 00:46:03;;;;;;;;;;;22.80;1.00;;;;;;4899478;29;20405;-50
2023/09/28 00:48:30;;;;;;;;;;;22.80;1.00;;;;;;4882426;29;19927;-52
2023/09/28 00:50:59;;;;;;;;;;;22.80;1.00;;;;;;4881773;29;20450;-53
2023/09/28 00:53:26;;;;;;;;;;;22.80;1.00;;;;;;4882576;29;19927;-50
2023/09/28 00:55:54;;;;;;;;;;;22.80;1.00;;;;;;4882545;29;20362;-52
2023/09/28 00:58:23;;;;;;;;;;;22.70;1.00;;;;;;4882391;29;19938;-51
2023/09/28 01:00:51;;;;;;;;;;;22.80;1.00;;;;;;4898879;29;19952;-52
2023/09/28 01:03:18;;;;;;;;;;;22.80;1.00;;;;;;4882270;29;19935;-50
2023/09/28 01:05:45;;;;;;;;;;;22.70;1.00;;;;;;4899269;29;19927;-54
2023/09/28 01:08:14;;;;;;;;;;;22.70;1.00;;;;;;4899109;29;20362;-53
2023/09/28 01:10:41;;;;;;;;;;;22.80;1.00;;;;;;4881928;29;20393;-50
2023/09/28 01:13:12;;;;;;;;;;;22.70;1.00;;;;;;4881996;29;19928;-56
2023/09/28 01:15:40;;;;;;;;;;;22.70;1.00;;;;;;4898956;29;19939;-53
2023/09/28 01:18:11;;;;;;;;;;;22.70;1.00;;;;;;4882081;29;20401;-52
2023/09/28 01:20:38;;;;;;;;;;;22.70;1.00;;;;;;4881646;29;20027;-51
2023/09/28 01:23:05;;;;;;;;;;;22.70;1.00;;;;;;4882178;29;19999;-50
2023/09/28 01:25:32;;;;;;;;;;;22.70;1.00;;;;;;4882172;29;20302;-52
2023/09/28 01:27:59;;;;;;;;;;;22.70;1.00;;;;;;4898678;29;19970;-52
2023/09/28 01:30:26;;;;;;;;;;;22.70;1.00;;;;;;4889920;29;19982;-50
2023/09/28 01:32:53;;;;;;;;;;;22.70;1.00;;;;;;4900434;29;19927;-50
2023/09/28 01:35:20;;;;;;;;;;;22.70;1.00;;;;;;4917428;29;19927;-52
2023/09/28 01:37:55;;;;;;;;;;;22.70;1.00;;;;;;4917472;29;19927;-50
2023/09/28 01:40:21;;;;;;;;;;;22.70;1.00;;;;;;4900082;29;19931;-53
2023/09/28 01:42:48;;;;;;;;;;;22.60;1.00;;;;;;4900398;29;20340;-51
2023/09/28 01:45:15;;;;;;;;;;;22.70;1.00;;;;;;4900309;29;19951;-54
2023/09/28 01:47:44;;;;;;;;;;;22.70;1.00;;;;;;4917235;29;20305;-52
2023/09/28 01:50:11;;;;;;;;;;;22.60;1.00;;;;;;4899767;29;19927;-51
2023/09/28 01:52:38;;;;;;;;;;;22.70;1.00;;;;;;4900095;29;19927;-53
2023/09/28 01:55:05;;;;;;;;;;;22.70;1.00;;;;;;4900100;29;19927;-54
2023/09/28 01:57:31;;;;;;;;;;;22.60;1.00;;;;;;4917001;29;19927;-52
2023/09/28 02:00:00;;;;;;;;;;;22.60;1.00;;;;;;4899393;29;20349;-52
2023/09/28 02:02:27;;;;;;;;;;;22.60;1.00;;;;;;4916198;29;19934;-51
2023/09/28 02:04:54;;;;;;;;;;;22.60;1.00;;;;;;4899895;29;19962;-51
2023/09/28 02:07:21;;;;;;;;;;;22.60;1.00;;;;;;4916966;29;19958;-52
2023/09/28 02:09:48;;;;;;;;;;;22.60;1.00;;;;;;4899595;29;19927;-51
2023/09/28 02:12:15;;;;;;;;;;;22.60;1.00;;;;;;4899768;29;19966;-54
2023/09/28 02:14:42;;;;;;;;;;;22.60;1.00;;;;;;4899729;29;20018;-52
2023/09/28 02:17:09;;;;;;;;;;;22.60;1.00;;;;;;4916813;29;19974;-53
2023/09/28 02:19:38;;;;;;;;;;;22.60;1.00;;;;;;4899299;29;19927;-51
2023/09/28 02:22:05;;;;;;;;;;;22.60;1.00;;;;;;4916843;29;19982;-52
2023/09/28 02:24:32;;;;;;;;;;;22.60;1.00;;;;;;4899534;29;19927;-51
2023/09/28 02:26:59;;;;;;;;;;;22.60;1.00;;;;;;4899426;29;19927;-51
2023/09/28 02:29:26;;;;;;;;;;;22.60;1.00;;;;;;4899186;29;20278;-54
2023/09/28 02:31:53;;;;;;;;;;;22.60;1.00;;;;;;4899639;29;19934;-52
2023/09/28 02:34:20;;;;;;;;;;;22.60;1.00;;;;;;4916426;29;20247;-54
2023/09/28 02:36:46;;;;;;;;;;;22.60;1.00;;;;;;4916363;29;19941;-51
2023/09/28 02:39:14;;;;;;;;;;;22.60;1.00;;;;;;4916143;29;20219;-51
2023/09/28 02:41:41;;;;;;;;;;;22.60;1.00;;;;;;4899245;29;20382;-52
2023/09/28 02:44:08;;;;;;;;;;;22.50;1.00;;;;;;4899452;29;20025;-50
2023/09/28 02:46:35;;;;;;;;;;;22.50;1.00;;;;;;4899514;29;20058;-51
2023/09/28 02:49:02;;;;;;;;;;;22.50;1.00;;;;;;4898996;29;20080;-53
2023/09/28 02:51:29;;;;;;;;;;;22.50;1.00;;;;;;4899130;29;20357;-53
2023/09/28 02:53:59;;;;;;;;;;;22.50;1.00;;;;;;4899325;29;19938;-50
2023/09/28 02:56:26;;;;;;;;;;;22.50;1.00;;;;;;4899265;29;19927;-53
2023/09/28 02:58:52;;;;;;;;;;;22.50;1.00;;;;;;4898889;29;20022;-52
2023/09/28 03:01:21;;;;;;;;;;;22.50;1.00;;;;;;4916225;29;20115;-54
2023/09/28 03:03:50;;;;;;;;;;;22.50;1.00;;;;;;4899045;29;19927;-54
2023/09/28 03:06:16;;;;;;;;;;;22.50;1.00;;;;;;4916127;29;19934;-50
2023/09/28 03:08:43;;;;;;;;;;;22.50;1.00;;;;;;4898896;29;19934;-51
2023/09/28 03:11:14;;;;;;;;;;;22.50;1.00;;;;;;4916070;29;19979;-51
2023/09/28 03:13:41;;;;;;;;;;;22.50;1.00;;;;;;4916457;29;20456;-53
2023/09/28 03:16:11;;;;;;;;;;;22.50;1.00;;;;;;4903078;29;19934;-51
2023/09/28 03:18:38;;;;;;;;;;;22.50;1.00;;;;;;4902920;29;19927;-55
2023/09/28 03:21:07;;;;;;;;;;;22.40;1.00;;;;;;4919627;29;19927;-53
2023/09/28 03:23:34;;;;;;;;;;;22.50;1.00;;;;;;4902794;29;19931;-54
2023/09/28 03:26:02;;;;;;;;;;;22.40;1.00;;;;;;4902714;29;19927;-52
2023/09/28 03:28:30;;;;;;;;;;;22.40;1.00;;;;;;4919687;29;19940;-52
2023/09/28 03:30:57;;;;;;;;;;;22.40;1.00;;;;;;4902565;29;20021;-52
2023/09/28 03:33:23;;;;;;;;;;;22.40;1.00;;;;;;4919575;29;19927;-51
2023/09/28 03:35:50;;;;;;;;;;;22.40;1.00;;;;;;4919497;29;20312;-49
2023/09/28 03:38:17;;;;;;;;;;;22.40;1.00;;;;;;4919777;29;19927;-53
2023/09/28 03:40:44;;;;;;;;;;;22.40;1.00;;;;;;4919191;29;19974;-55
2023/09/28 03:43:11;;;;;;;;;;;22.40;1.00;;;;;;4919906;29;20045;-52
2023/09/28 03:45:37;;;;;;;;;;;22.40;1.00;;;;;;4919458;29;19983;-53
2023/09/28 03:48:04;;;;;;;;;;;22.40;1.00;;;;;;4919583;29;20084;-56
2023/09/28 03:50:31;;;;;;;;;;;22.40;1.00;;;;;;4919133;29;20021;-56
2023/09/28 03:52:58;;;;;;;;;;;22.40;1.00;;;;;;4919420;29;20393;-56
2023/09/28 03:55:25;;;;;;;;;;;22.40;1.00;;;;;;4919237;29;19931;-57
2023/09/28 03:57:52;;;;;;;;;;;22.40;1.00;;;;;;4919184;29;19931;-52
2023/09/28 04:00:19;;;;;;;;;;;22.40;1.00;;;;;;4918931;29;19999;-57
2023/09/28 04:02:50;;;;;;;;;;;22.40;1.00;;;;;;4919235;29;20022;-55
2023/09/28 04:05:21;;;;;;;;;;;22.40;1.00;;;;;;4919102;29;19931;-56
2023/09/28 04:07:48;;;;;;;;;;;22.40;1.00;;;;;;4918081;29;20366;-61
2023/09/28 04:10:15;;;;;;;;;;;22.40;1.00;;;;;;4917248;29;19962;-61
2023/09/28 04:12:42;;;;;;;;;;;22.30;1.00;;;;;;4917355;29;19931;-61
2023/09/28 04:15:09;;;;;;;;;;;22.30;1.00;;;;;;4917411;29;20325;-61
2023/09/28 04:17:37;;;;;;;;;;;22.40;1.00;;;;;;4917316;29;19927;-60
2023/09/28 04:20:09;;;;;;;;;;;22.30;1.00;;;;;;4917029;29;20013;-61
2023/09/28 04:22:36;;;;;;;;;;;22.30;1.00;;;;;;4917214;29;20021;-61
2023/09/28 04:25:03;;;;;;;;;;;22.30;1.00;;;;;;4917134;29;19983;-61
2023/09/28 04:27:30;;;;;;;;;;;22.30;1.00;;;;;;4917297;29;19934;-61
2023/09/28 04:29:57;;;;;;;;;;;22.30;1.00;;;;;;4917311;29;19959;-60
2023/09/28 04:32:24;;;;;;;;;;;22.30;1.00;;;;;;4917609;29;19978;-59
2023/09/28 04:34:51;;;;;;;;;;;22.30;1.00;;;;;;4917388;29;19927;-61
2023/09/28 04:37:19;;;;;;;;;;;22.30;1.00;;;;;;4917484;29;19927;-60
2023/09/28 04:39:45;;;;;;;;;;;22.30;1.00;;;;;;4900159;29;19927;-60
2023/09/28 04:42:12;;;;;;;;;;;22.30;1.00;;;;;;4900494;29;19927;-61
2023/09/28 04:44:43;;;;;;;;;;;22.30;1.00;;;;;;4917263;29;19931;-61
2023/09/28 04:47:11;;;;;;;;;;;22.30;1.00;;;;;;4917118;29;19934;-60
2023/09/28 04:49:40;;;;;;;;;;;22.30;1.00;;;;;;4916818;29;19927;-60
2023/09/28 04:52:09;;;;;;;;;;;22.30;1.00;;;;;;4917166;29;19927;-60
2023/09/28 04:54:37;;;;;;;;;;;22.30;1.00;;;;;;4916023;29;20042;-58
2023/09/28 04:57:05;;;;;;;;;;;22.30;1.00;;;;;;4906565;29;20011;-60
2023/09/28 04:59:36;;;;;;;;;;;22.30;1.00;;;;;;4909334;29;20026;-60
2023/09/28 05:02:02;;;;;;;;;;;22.30;1.00;;;;;;4911002;29;19934;-60
2023/09/28 05:04:30;;;;;;;;;;;22.30;1.00;;;;;;4912667;29;19934;-60
2023/09/28 05:06:59;;;;;;;;;;;22.30;1.00;;;;;;4911346;29;19927;-59
2023/09/28 05:09:26;;;;;;;;;;;22.30;1.00;;;;;;4916236;29;20243;-56
2023/09/28 05:11:53;;;;;;;;;;;22.30;1.00;;;;;;4906815;29;19931;-61
2023/09/28 05:14:24;;;;;;;;;;;22.30;1.00;;;;;;4907207;29;19975;-59
2023/09/28 05:16:51;;;;;;;;;;;22.30;1.00;;;;;;4907473;29;19962;-60
2023/09/28 05:19:18;;;;;;;;;;;22.30;1.00;;;;;;4914910;29;20006;-58
2023/09/28 05:21:45;;;;;;;;;;;22.20;1.00;;;;;;4901378;29;19954;-60
2023/09/28 05:24:11;;;;;;;;;;;22.30;1.00;;;;;;4908663;29;19932;-59
2023/09/28 05:26:38;;;;;;;;;;;22.30;1.00;;;;;;4905853;29;20019;-58
2023/09/28 05:29:05;;;;;;;;;;;22.20;1.00;;;;;;4905384;29;19927;-60
2023/09/28 05:31:32;;;;;;;;;;;22.30;1.00;;;;;;4911958;29;19927;-60
2023/09/28 05:33:59;;;;;;;;;;;22.20;1.00;;;;;;4901439;29;20477;-60
2023/09/28 05:36:26;;;;;;;;;;;22.20;1.00;;;;;;4912743;29;20115;-60
2023/09/28 05:38:52;;;;;;;;;;;22.20;1.00;;;;;;4916178;29;19931;-60
2023/09/28 05:41:19;;;;;;;;;;;22.20;1.00;;;;;;4903616;29;19927;-59
2023/09/28 05:43:46;;;;;;;;;;;22.20;1.00;;;;;;4887803;29;19934;-61
2023/09/28 05:46:14;;;;;;;;;;;22.20;1.00;;;;;;4904221;29;19935;-60
2023/09/28 05:48:41;;;;;;;;;;;22.20;1.00;;;;;;4907963;29;19938;-60
2023/09/28 05:51:11;;;;;;;;;;;22.20;1.00;;;;;;4894198;29;19927;-61
2023/09/28 05:53:37;;;;;;;;;;;22.20;1.00;;;;;;4895515;29;19960;-56
2023/09/28 05:56:05;;;;;;;;;;;22.20;1.00;;;;;;4895809;29;19931;-61
2023/09/28 05:58:32;;;;;;;;;;;22.20;1.00;;;;;;4896523;29;19931;-61
2023/09/28 06:01:08;;;;;;;;;;;22.10;1.00;;;;;;4896302;29;20018;-60
2023/09/28 06:03:37;;;;;;;;;;;22.20;1.00;;;;;;4896279;29;19950;-61
2023/09/28 06:06:15;;;;;;;;;;;22.10;1.00;;;;;;4892128;29;20476;-60
2023/09/28 06:08:42;;;;;;;;;;;22.10;1.00;;;;;;4894736;29;20357;-62
2023/09/28 06:11:12;;;;;;;;;;;22.20;1.00;;;;;;4890251;29;20457;-61
2023/09/28 06:13:40;;;;;;;;;;;22.20;1.00;;;;;;4897374;29;19955;-62
2023/09/28 06:16:27;;;;;;;;;;;22.10;1.00;;;;;;4888224;29;19974;-59
2023/09/28 06:18:55;;;;;;;;;;;22.10;1.00;;;;;;4895866;29;20397;-59
2023/09/28 06:21:22;;;;;;;;;;;22.10;1.00;;;;;;4896403;29;20420;-59
2023/09/28 06:23:49;;;;;;;;;;;22.10;1.00;;;;;;4888665;29;19983;-62
2023/09/28 06:26:16;;;;;;;;;;;22.10;1.00;;;;;;4890384;29;19935;-61
2023/09/28 06:29:00;;;;;;;;;;;22.10;1.00;;;;;;4887640;29;19928;-62
2023/09/28 06:31:27;;;;;;;;;;;22.10;1.00;;;;;;4887902;29;20361;-62
2023/09/28 06:33:54;;;;;;;;;;;22.10;1.00;;;;;;4881122;29;19942;-62
2023/09/28 06:36:24;;;;;;;;;;;22.10;1.00;;;;;;4890996;29;19927;-64
2023/09/28 06:39:08;;;;;;;;;;;22.10;1.00;;;;;;4897141;29;19955;-61
2023/09/28 06:41:36;;;;;;;;;;;22.10;1.00;;;;;;4897396;29;19927;-60
2023/09/28 06:44:03;;;;;;;;;;;22.10;1.00;;;;;;4897220;29;19927;-62
2023/09/28 06:46:30;;;;;;;;;;;22.10;1.00;;;;;;4897605;29;19931;-62
2023/09/28 06:48:56;;;;;;;;;;;22.10;1.00;;;;;;4896418;29;19927;-61
2023/09/28 06:51:25;;;;;;;;;;;22.10;1.00;;;;;;4897413;29;20291;-61
2023/09/28 06:53:53;;;;;;;;;;;22.10;1.00;;;;;;4897194;29;19935;-61
2023/09/28 06:56:20;;;;;;;;;;;22.10;1.00;;;;;;4895758;29;19959;-60
2023/09/28 06:58:47;;;;;;;;;;;22.10;1.00;;;;;;4889628;29;20018;-62
2023/09/28 07:01:14;;;;;;;;;;;22.10;1.00;;;;;;4891683;29;19934;-62
2023/09/28 07:03:41;;;;;;;;;;;22.10;1.00;;;;;;4896114;29;20019;-62
2023/09/28 07:06:09;;;;;;;;;;;22.10;1.00;;;;;;4893443;29;19975;-62
2023/09/28 07:08:35;;;;;;;;;;;22.10;1.00;;;;;;4876852;29;19935;-61
2023/09/28 07:11:03;;;;;;;;;;;22.10;1.00;;;;;;4889452;29;20030;-61
2023/09/28 07:13:30;;;;;;;;;;;22.10;1.00;;;;;;4889829;29;19928;-61
2023/09/28 07:15:57;;;;;;;;;;;22.10;1.00;;;;;;4896318;29;20375;-61
2023/09/28 07:18:25;;;;;;;;;;;22.10;1.00;;;;;;4896406;29;19928;-59
2023/09/28 07:20:53;;;;;;;;;;;22.10;1.00;;;;;;4892077;29;19928;-61
2023/09/28 07:23:19;;;;;;;;;;;22.10;1.00;;;;;;4890159;29;20375;-59
2023/09/28 07:25:48;;;;;;;;;;;22.10;1.00;;;;;;4882356;29;20398;-61
2023/09/28 07:28:15;;;;;;;;;;;22.10;1.00;;;;;;4879240;29;20458;-62
2023/09/28 07:30:42;;;;;;;;;;;22.10;1.00;;;;;;4879757;29;19932;-61
2023/09/28 07:33:13;;;;;;;;;;;22.10;1.00;;;;;;4888075;29;19943;-61
2023/09/28 07:35:40;;;;;;;;;;;22.10;1.00;;;;;;4903392;29;19967;-62
2023/09/28 07:38:07;;;;;;;;;;;22.10;1.00;;;;;;4880771;29;19931;-62
2023/09/28 07:40:34;;;;;;;;;;;22.10;1.00;;;;;;4861364;29;19934;-62
2023/09/28 07:43:14;;;;;;;;;;;22.10;1.00;;;;;;4878335;29;19936;-62
2023/09/28 07:45:41;;;;;;;;;;;22.10;1.00;;;;;;4878577;29;19931;-62
2023/09/28 07:48:08;;;;;;;;;;;22.10;1.00;;;;;;4878115;29;19991;-62
2023/09/28 07:50:35;;;;;;;;;;;22.10;1.00;;;;;;4877862;29;19935;-62
2023/09/28 07:53:02;;;;;;;;;;;22.10;1.00;;;;;;4878086;29;20042;-61
2023/09/28 07:55:29;;;;;;;;;;;22.10;1.00;;;;;;4878004;29;19976;-62
2023/09/28 07:57:56;;;;;;;;;;;22.10;1.00;;;;;;4878190;29;19979;-61
2023/09/28 08:00:37;;;;;;;;;;;22.10;1.00;;;;;;4878246;29;19984;-61
2023/09/28 08:03:05;;;;;;;;;;;22.10;1.00;;;;;;4881577;29;19950;-61
2023/09/28 08:05:32;;;;;;;;;;;22.10;1.00;;;;;;4881538;29;19928;-62
2023/09/28 08:07:59;;;;;;;;;;;22.00;1.00;;;;;;4881334;29;19927;-62
2023/09/28 08:10:42;;;;;;;;;;;22.00;1.00;;;;;;4881264;29;20395;-60
2023/09/28 08:13:09;;;;;;;;;;;22.10;1.00;;;;;;4881568;29;20014;-62
2023/09/28 08:15:39;;;;;;;;;;;22.00;1.00;;;;;;4881284;29;19928;-65
2023/09/28 08:18:06;;;;;;;;;;;22.10;1.00;;;;;;4881219;29;19975;-62
2023/09/28 08:20:33;;;;;;;;;;;22.10;1.00;;;;;;4880984;29;19935;-61
2023/09/28 08:23:01;;;;;;;;;;;22.10;1.00;;;;;;4881463;29;19928;-61
2023/09/28 08:25:31;;;;;;;;;;;22.00;1.00;;;;;;4893462;29;20000;-62
2023/09/28 08:27:57;;;;;;;;;;;22.00;1.00;;;;;;4899654;29;19932;-62
2023/09/28 08:30:24;;;;;;;;;;;22.00;1.00;;;;;;4899521;29;19928;-61
2023/09/28 08:32:52;;;;;;;;;;;22.00;1.00;;;;;;4899695;29;20282;-62
2023/09/28 08:35:20;;;;;;;;;;;22.00;1.00;;;;;;4899656;29;19959;-62
2023/09/28 08:37:47;;;;;;;;;;;22.00;1.00;;;;;;4899669;29;19935;-62
2023/09/28 08:40:14;;;;;;;;;;;22.00;1.00;;;;;;4899775;29;19932;-62
2023/09/28 08:42:43;;;;;;;;;;;22.00;1.00;;;;;;4900425;29;19933;-62
2023/09/28 08:45:14;;;;;;;;;;;22.00;1.00;;;;;;4902370;29;19975;-62
2023/09/28 08:47:50;;;;;;;;;;;22.00;1.00;;;;;;4902258;29;19934;-62
2023/09/28 08:50:23;;;;;;;;;;;22.00;1.00;;;;;;4898924;29;19983;-61
2023/09/28 08:52:50;;;;;;;;;;;22.00;1.00;;;;;;4899445;29;19927;-62
2023/09/28 08:55:18;;;;;;;;;;;22.00;1.00;;;;;;4899301;29;19927;-60
2023/09/28 08:57:45;;;;;;;;;;;22.00;1.00;;;;;;4899395;29;19951;-61
2023/09/28 09:00:13;;;;;;;;;;;22.00;1.00;;;;;;4898901;29;19928;-61
2023/09/28 09:02:43;;;;;;;;;;;22.00;1.00;;;;;;4899141;29;19927;-61
2023/09/28 09:05:13;;;;;;;;;;;22.00;1.00;;;;;;4900552;29;20365;-62
2023/09/28 09:07:43;;;;;;;;;;;22.00;1.00;;;;;;4891855;29;20351;-60
2023/09/28 09:10:11;;;;;;;;;;;22.00;1.00;;;;;;4880030;29;19928;-62
2023/09/28 09:12:39;;;;;;;;;;;22.00;1.00;;;;;;4879918;29;19928;-62
2023/09/28 09:15:06;;;;;;;;;;;22.00;1.00;;;;;;4896408;29;19927;-62
2023/09/28 09:17:33;;;;;;;;;;;22.00;1.00;;;;;;4898913;29;19931;-62
2023/09/28 09:20:02;;;;;;;;;;;22.00;1.00;;;;;;4898524;29;19927;-62
2023/09/28 09:22:29;;;;;;;;;;;22.00;1.00;;;;;;4898652;29;19976;-62
2023/09/28 09:25:15;;;;;;;;;;;22.00;1.00;;;;;;4898849;29;20042;-61
2023/09/28 09:27:43;;;;;;;;;;;22.00;1.00;;;;;;4898687;29;19931;-62
2023/09/28 09:30:14;;;;;;;;;;;22.00;1.00;;;;;;4905166;29;19927;-60
2023/09/28 09:32:42;;;;;;;;;;;22.00;1.00;;;;;;4892804;29;19934;-62
2023/09/28 09:35:10;;;;;;;;;;;22.00;1.00;;;;;;4898536;29;19928;-61
2023/09/28 09:37:40;;;;;;;;;;;22.00;1.00;;;;;;4898379;29;20293;-61
2023/09/28 09:40:13;;;;;;;;;;;22.00;1.00;;;;;;4881504;29;20346;-60
2023/09/28 09:42:41;;;;;;;;;;;22.00;1.00;;;;;;4898559;29;19928;-60
2023/09/28 09:45:11;;;;;;;;;;;22.00;1.00;;;;;;4905266;29;20341;-61
2023/09/28 09:47:47;;;;;;;;;;;22.00;1.00;;;;;;4888716;29;20309;-62
2023/09/28 09:50:16;;;;;;;;;;;22.00;1.00;;;;;;4879748;29;20355;-60
2023/09/28 09:52:44;;;;;;;;;;;22.00;1.00;;;;;;4898315;29;19928;-62
2023/09/28 09:55:12;;;;;;;;;;;22.00;1.00;;;;;;4898156;29;19928;-59
2023/09/28 09:57:41;;;;;;;;;;;22.00;1.00;;;;;;4898034;29;19928;-61
2023/09/28 10:00:08;;;;;;;;;;;22.00;1.00;;;;;;4897753;29;19928;-62
2023/09/28 10:02:36;;;;;;;;;;;22.00;1.00;;;;;;4898187;29;20409;-61
2023/09/28 10:05:03;;;;;;;;;;;22.00;1.00;;;;;;4898149;29;19934;-61
2023/09/28 10:07:36;;;;;;;;;;;22.00;1.00;;;;;;4890689;29;19927;-59
2023/09/28 10:10:18;;;;;;;;;;;22.00;1.00;;;;;;4897682;29;19928;-62
2023/09/28 10:12:47;;;;;;;;;;;22.00;1.00;;;;;;4898056;29;19938;-62
2023/09/28 10:15:14;;;;;;;;;;;22.00;1.00;;;;;;4897683;29;19934;-61
2023/09/28 10:17:41;;;;;;;;;;;22.00;1.00;;;;;;4897816;29;19971;-60
2023/09/28 10:20:08;;;;;;;;;;;22.00;1.00;;;;;;4897443;29;19931;-61
2023/09/28 10:22:40;;;;;;;;;;;22.00;1.00;;;;;;4897783;29;19938;-60
2023/09/28 10:25:06;;;;;;;;;;;22.00;1.00;;;;;;4897395;29;20022;-61
2023/09/28 10:27:36;;;;;;;;;;;22.00;1.00;;;;;;4897831;29;19928;-61
2023/09/28 10:30:22;;;;;;;;;;;22.00;1.00;;;;;;4897358;29;19967;-59
2023/09/28 10:32:54;;;;;;;;;;;22.00;1.00;;;;;;4892186;29;20348;-62
2023/09/28 10:35:28;;;;;;;;;;;22.00;1.00;;;;;;4897914;29;19950;-61
2023/09/28 10:38:15;;;;;;;;;;;22.00;1.00;;;;;;4897618;29;19934;-61
2023/09/28 10:40:44;;;;;;;;;;;22.00;1.00;;;;;;4890758;29;19939;-61
2023/09/28 10:43:33;;;;;;;;;;;22.00;1.00;;;;;;4897343;29;19928;-61
2023/09/28 10:46:04;;;;;;;;;;;22.00;1.00;;;;;;4897525;29;19935;-60
2023/09/28 10:48:31;;;;;;;;;;;22.10;1.00;;;;;;4897318;29;20022;-60
2023/09/28 10:51:01;;;;;;;;;;;22.00;1.00;;;;;;4897086;29;19927;-62
2023/09/28 10:53:28;;;;;;;;;;;22.10;1.00;;;;;;4897258;29;20341;-62
2023/09/28 10:55:54;;;;;;;;;;;22.00;1.00;;;;;;4897265;29;19935;-62
2023/09/28 10:58:21;;;;;;;;;;;22.10;1.00;;;;;;4905106;29;19931;-61
2023/09/28 11:00:48;;;;;;;;;;;22.10;1.00;;;;;;4896973;29;19927;-62
2023/09/28 11:03:16;;;;;;;;;;;22.00;1.00;;;;;;4897156;29;20026;-62
2023/09/28 11:05:43;;;;;;;;;;;22.10;1.00;;;;;;4897401;29;19934;-62
2023/09/28 11:08:10;;;;;;;;;;;22.10;1.00;;;;;;4897170;29;20301;-62
2023/09/28 11:10:37;;;;;;;;;;;22.00;1.00;;;;;;4897035;29;20194;-61
2023/09/28 11:13:04;;;;;;;;;;;22.10;1.00;;;;;;4897110;29;19934;-62
2023/09/28 11:15:31;;;;;;;;;;;22.10;1.00;;;;;;4899779;29;19935;-62
2023/09/28 11:17:58;;;;;;;;;;;22.00;1.00;;;;;;4888334;29;20054;-62
2023/09/28 11:20:25;;;;;;;;;;;22.10;1.00;;;;;;4878207;29;19935;-62
2023/09/28 11:22:54;;;;;;;;;;;22.00;1.00;;;;;;4878429;29;19928;-61
2023/09/28 11:25:21;;;;;;;;;;;22.10;1.00;;;;;;4894991;29;19928;-64
2023/09/28 11:28:09;;;;;;;;;;;22.10;1.00;;;;;;4902820;29;19937;-62
2023/09/28 11:30:38;;;;;;;;;;;22.10;1.00;;;;;;4896743;29;20026;-62
2023/09/28 11:33:06;;;;;;;;;;;22.10;1.00;;;;;;4896953;29;19928;-62
2023/09/28 11:35:34;;;;;;;;;;;22.10;1.00;;;;;;4898768;29;20034;-61
2023/09/28 11:38:02;;;;;;;;;;;22.10;1.00;;;;;;4900579;29;19928;-61
2023/09/28 11:40:30;;;;;;;;;;;22.10;1.00;;;;;;4900201;29;20346;-62
2023/09/28 11:42:58;;;;;;;;;;;22.10;1.00;;;;;;4900498;29;20026;-62
2023/09/28 11:45:29;;;;;;;;;;;22.10;1.00;;;;;;4900559;29;19933;-62
2023/09/28 11:47:56;;;;;;;;;;;22.10;1.00;;;;;;4902935;29;20365;-61
2023/09/28 11:50:26;;;;;;;;;;;22.10;1.00;;;;;;4881299;29;19928;-61
2023/09/28 11:52:53;;;;;;;;;;;22.10;1.00;;;;;;4894984;29;19962;-61
2023/09/28 11:55:20;;;;;;;;;;;22.10;1.00;;;;;;4900541;29;19934;-62
2023/09/28 11:57:48;;;;;;;;;;;22.10;1.00;;;;;;4900253;29;20026;-62
2023/09/28 12:00:18;;;;;;;;;;;22.10;1.00;;;;;;4899897;29;19927;-61
2023/09/28 12:02:46;;;;;;;;;;;22.10;1.00;;;;;;4900281;29;19963;-62
2023/09/28 12:05:13;;;;;;;;;;;22.10;1.00;;;;;;4900495;29;19985;-62
2023/09/28 12:07:41;;;;;;;;;;;22.10;1.00;;;;;;4900262;29;20030;-62
2023/09/28 12:10:17;;;;;;;;;;;22.10;1.00;;;;;;4901010;29;19967;-61
2023/09/28 12:12:44;;;;;;;;;;;22.10;1.00;;;;;;4881334;29;19931;-62
2023/09/28 12:15:11;;;;;;;;;;;22.10;1.00;;;;;;4864894;29;19980;-62
2023/09/28 12:17:38;;;;;;;;;;;22.10;1.00;;;;;;4881230;29;19997;-62
2023/09/28 12:20:06;;;;;;;;;;;22.10;1.00;;;;;;4881009;29;19953;-62
2023/09/28 12:22:33;;;;;;;;;;;22.10;1.00;;;;;;4881375;29;20018;-62
2023/09/28 12:25:01;;;;;;;;;;;22.20;1.00;;;;;;4881472;29;19984;-62
2023/09/28 12:27:30;;;;;;;;;;;22.10;1.00;;;;;;4864758;29;19950;-62
2023/09/28 12:29:56;;;;;;;;;;;22.10;1.00;;;;;;4880928;29;19934;-62
2023/09/28 12:32:23;;;;;;;;;;;22.20;1.00;;;;;;4881166;29;19928;-62
2023/09/28 12:34:50;;;;;;;;;;;22.20;1.00;;;;;;4880995;29;19963;-62
2023/09/28 12:37:17;;;;;;;;;;;22.20;1.00;;;;;;4880933;29;20453;-62
2023/09/28 12:39:44;;;;;;;;;;;22.10;1.00;;;;;;4891789;29;20018;-62
2023/09/28 12:42:15;;;;;;;;;;;22.10;1.00;;;;;;4899734;29;20019;-62
2023/09/28 12:44:42;;;;;;;;;;;22.10;1.00;;;;;;4899656;29;19987;-62
2023/09/28 12:47:09;;;;;;;;;;;22.10;1.00;;;;;;4898660;29;19967;-62
2023/09/28 12:49:36;;;;;;;;;;;22.20;1.00;;;;;;4898881;29;20382;-62
2023/09/28 12:52:04;;;;;;;;;;;22.10;1.00;;;;;;4899652;29;19934;-62
2023/09/28 12:54:32;;;;;;;;;;;22.20;1.00;;;;;;4899365;29;19947;-62
2023/09/28 12:56:59;;;;;;;;;;;22.20;1.00;;;;;;4904334;29;19975;-62
2023/09/28 12:59:26;;;;;;;;;;;22.20;1.00;;;;;;4885019;29;19927;-62
2023/09/28 13:01:53;;;;;;;;;;;22.20;1.00;;;;;;4880610;29;19928;-62
2023/09/28 13:04:19;;;;;;;;;;;22.20;1.00;;;;;;4880546;29;19951;-62
2023/09/28 13:06:46;;;;;;;;;;;22.20;1.00;;;;;;4891681;29;19928;-62
2023/09/28 13:09:14;;;;;;;;;;;22.20;1.00;;;;;;4898665;29;19931;-62
2023/09/28 13:11:42;;;;;;;;;;;22.20;1.00;;;;;;4904150;29;19943;-62
2023/09/28 13:14:09;;;;;;;;;;;22.20;1.00;;;;;;4880553;29;20275;-62
2023/09/28 13:16:35;;;;;;;;;;;22.20;1.00;;;;;;4880130;29;19927;-62
2023/09/28 13:19:03;;;;;;;;;;;22.20;1.00;;;;;;4879877;29;20006;-64
2023/09/28 13:21:30;;;;;;;;;;;22.20;1.00;;;;;;4880205;29;19935;-62
2023/09/28 13:23:57;;;;;;;;;;;22.20;1.00;;;;;;4880224;29;20398;-62
2023/09/28 13:26:39;;;;;;;;;;;22.20;1.00;;;;;;4897925;29;20008;-61
2023/09/28 13:29:06;;;;;;;;;;;22.20;1.00;;;;;;4898420;29;19928;-62
2023/09/28 13:31:33;;;;;;;;;;;22.20;1.00;;;;;;4898183;29;19934;-62
2023/09/28 13:34:03;;;;;;;;;;;22.20;1.00;;;;;;4892451;29;20406;-62
2023/09/28 13:36:29;;;;;;;;;;;22.20;1.00;;;;;;4898549;29;20390;-62
2023/09/28 13:38:56;;;;;;;;;;;22.20;1.00;;;;;;4898304;29;20378;-62
2023/09/28 13:41:26;;;;;;;;;;;22.20;1.00;;;;;;4898773;29;19934;-62
2023/09/28 13:43:53;;;;;;;;;;;22.20;1.00;;;;;;4890294;29;19934;-62
2023/09/28 13:46:21;;;;;;;;;;;22.20;1.00;;;;;;4897870;29;19927;-62
2023/09/28 13:48:48;;;;;;;;;;;22.20;1.00;;;;;;4897612;29;19927;-62
2023/09/28 13:51:14;;;;;;;;;;;22.20;1.00;;;;;;4899862;29;20497;-62
2023/09/28 13:53:41;;;;;;;;;;;22.20;1.00;;;;;;4879650;29;19971;-61
2023/09/28 13:56:08;;;;;;;;;;;22.20;1.00;;;;;;4883704;29;19959;-62
2023/09/28 13:58:35;;;;;;;;;;;22.20;1.00;;;;;;4895896;29;19974;-62
2023/09/28 14:01:10;;;;;;;;;;;22.20;1.00;;;;;;4891314;29;19927;-62
2023/09/28 14:03:37;;;;;;;;;;;22.30;1.00;;;;;;4897275;29;19928;-61
2023/09/28 14:06:05;;;;;;;;;;;22.20;1.00;;;;;;4898126;29;20449;-62
2023/09/28 14:08:32;;;;;;;;;;;22.30;1.00;;;;;;4898018;29;20320;-62
2023/09/28 14:10:59;;;;;;;;;;;22.20;1.00;;;;;;4897689;29;19937;-62
2023/09/28 14:13:26;;;;;;;;;;;22.20;1.00;;;;;;4897896;29;19927;-60
2023/09/28 14:15:55;;;;;;;;;;;22.30;1.00;;;;;;4898011;29;19934;-62
2023/09/28 14:18:24;;;;;;;;;;;22.30;1.00;;;;;;4897758;29;20302;-61
2023/09/28 14:20:52;;;;;;;;;;;22.30;1.00;;;;;;4902362;29;20462;-62
2023/09/28 14:23:19;;;;;;;;;;;22.30;1.00;;;;;;4879082;29;19938;-62
2023/09/28 14:25:46;;;;;;;;;;;22.30;1.00;;;;;;4879189;29;19928;-62
2023/09/28 14:28:12;;;;;;;;;;;22.30;1.00;;;;;;4897678;29;19959;-62
2023/09/28 14:30:39;;;;;;;;;;;22.30;1.00;;;;;;4910746;29;19950;-62
2023/09/28 14:33:06;;;;;;;;;;;22.20;1.00;;;;;;4909479;29;19927;-62
2023/09/28 14:35:33;;;;;;;;;;;22.30;1.00;;;;;;4903434;29;19927;-65
2023/09/28 14:37:59;;;;;;;;;;;22.30;1.00;;;;;;4894075;29;19927;-62